sensor_id;sensor_type;location;lat;lon;timestamp;pressure;altitude;pressure_sealevel;temperature;humidity
42411;BME280;28056;51.112;0.984;2022-12-18T00:00:12;101464.05;;;3.27;52.26
42411;BME280;28056;51.112;0.984;2022-12-18T00:02:40;101454.91;;;3.27;53.45
42411;BME280;28056;51.112;0.984;2022-12-18T00:05:08;101451.17;;;3.65;53.35
42411;BME280;28056;51.112;0.984;2022-12-18T00:07:35;101452.59;;;3.35;53.37
42411;BME280;28056;51.112;0.984;2022-12-18T00:10:03;101448.28;;;2.98;54.53
42411;BME280;28056;51.112;0.984;2022-12-18T00:12:31;101446.99;;;2.82;54.72
42411;BME280;28056;51.112;0.984;2022-12-18T00:14:58;101451.14;;;3.15;54.31
42411;BME280;28056;51.112;0.984;2022-12-18T00:17:26;101449.11;;;2.88;54.39
42411;BME280;28056;51.112;0.984;2022-12-18T00:19:53;101448.19;;;3.34;54.31
42411;BME280;28056;51.112;0.984;2022-12-18T00:22:21;101438.35;;;3.02;54.08
42411;BME280;28056;51.112;0.984;2022-12-18T00:24:47;101431.73;;;2.95;54.34
42411;BME280;28056;51.112;0.984;2022-12-18T00:27:14;101431.52;;;2.79;54.74
42411;BME280;28056;51.112;0.984;2022-12-18T00:29:42;101431.77;;;3.10;54.23
42411;BME280;28056;51.112;0.984;2022-12-18T00:32:09;101433.44;;;3.17;54.36
42411;BME280;28056;51.112;0.984;2022-12-18T00:34:37;101423.09;;;2.91;54.11
42411;BME280;28056;51.112;0.984;2022-12-18T00:37:04;101424.03;;;3.07;53.81
42411;BME280;28056;51.112;0.984;2022-12-18T00:39:32;101436.66;;;3.16;53.95
42411;BME280;28056;51.112;0.984;2022-12-18T00:42:00;101439.06;;;3.88;53.28
42411;BME280;28056;51.112;0.984;2022-12-18T00:44:27;101437.27;;;3.37;53.18
42411;BME280;28056;51.112;0.984;2022-12-18T00:46:55;101438.38;;;3.14;54.44
42411;BME280;28056;51.112;0.984;2022-12-18T00:49:22;101432.13;;;2.62;54.57
42411;BME280;28056;51.112;0.984;2022-12-18T00:51:49;101441.70;;;2.75;56.26
42411;BME280;28056;51.112;0.984;2022-12-18T00:54:17;101443.41;;;2.69;55.98
42411;BME280;28056;51.112;0.984;2022-12-18T00:56:44;101448.24;;;2.58;56.78
42411;BME280;28056;51.112;0.984;2022-12-18T00:59:12;101443.26;;;2.25;57.43
42411;BME280;28056;51.112;0.984;2022-12-18T01:04:51;101450.80;;;2.86;56.74
42411;BME280;28056;51.112;0.984;2022-12-18T01:07:18;101450.93;;;3.14;55.52
42411;BME280;28056;51.112;0.984;2022-12-18T01:09:46;101443.60;;;2.85;56.00
42411;BME280;28056;51.112;0.984;2022-12-18T01:12:13;101437.77;;;2.66;56.30
42411;BME280;28056;51.112;0.984;2022-12-18T01:14:41;101443.70;;;2.72;56.72
42411;BME280;28056;51.112;0.984;2022-12-18T01:17:08;101438.63;;;2.92;55.69
42411;BME280;28056;51.112;0.984;2022-12-18T01:19:35;101443.54;;;2.28;56.30
42411;BME280;28056;51.112;0.984;2022-12-18T01:22:05;101433.86;;;2.49;57.15
42411;BME280;28056;51.112;0.984;2022-12-18T01:24:32;101428.83;;;2.07;57.54
42411;BME280;28056;51.112;0.984;2022-12-18T01:27:00;101424.43;;;2.86;56.12
42411;BME280;28056;51.112;0.984;2022-12-18T01:29:27;101422.12;;;2.72;56.41
42411;BME280;28056;51.112;0.984;2022-12-18T01:31:55;101415.78;;;2.92;55.87
42411;BME280;28056;51.112;0.984;2022-12-18T01:34:23;101412.75;;;2.68;56.30
42411;BME280;28056;51.112;0.984;2022-12-18T01:36:50;101412.92;;;2.59;55.98
42411;BME280;28056;51.112;0.984;2022-12-18T01:39:19;101405.27;;;2.56;56.97
42411;BME280;28056;51.112;0.984;2022-12-18T01:41:46;101404.77;;;2.97;56.72
42411;BME280;28056;51.112;0.984;2022-12-18T01:44:55;101400.97;;;3.04;56.31
42411;BME280;28056;51.112;0.984;2022-12-18T01:47:26;101398.52;;;3.38;55.36
42411;BME280;28056;51.112;0.984;2022-12-18T01:49:57;101397.23;;;2.81;55.91
42411;BME280;28056;51.112;0.984;2022-12-18T01:52:28;101397.03;;;3.25;55.88
42411;BME280;28056;51.112;0.984;2022-12-18T01:54:58;101390.55;;;2.97;55.82
42411;BME280;28056;51.112;0.984;2022-12-18T01:57:28;101395.63;;;3.16;55.57
42411;BME280;28056;51.112;0.984;2022-12-18T02:00:00;101396.47;;;3.27;55.74
42411;BME280;28056;51.112;0.984;2022-12-18T02:02:29;101395.00;;;3.68;54.92
42411;BME280;28056;51.112;0.984;2022-12-18T02:04:57;101396.12;;;3.91;54.44
42411;BME280;28056;51.112;0.984;2022-12-18T02:07:33;101394.39;;;3.27;53.64
42411;BME280;28056;51.112;0.984;2022-12-18T02:10:09;101400.10;;;3.95;53.51
42411;BME280;28056;51.112;0.984;2022-12-18T02:12:43;101399.01;;;3.73;53.87
42411;BME280;28056;51.112;0.984;2022-12-18T02:15:17;101397.47;;;3.81;53.74
42411;BME280;28056;51.112;0.984;2022-12-18T02:17:50;101385.73;;;3.65;53.49
42411;BME280;28056;51.112;0.984;2022-12-18T02:20:23;101383.53;;;4.21;53.57
42411;BME280;28056;51.112;0.984;2022-12-18T02:23:04;101379.92;;;3.74;53.29
42411;BME280;28056;51.112;0.984;2022-12-18T02:25:54;101380.43;;;3.95;52.88
42411;BME280;28056;51.112;0.984;2022-12-18T02:28:31;101384.99;;;3.78;52.96
42411;BME280;28056;51.112;0.984;2022-12-18T02:31:04;101387.18;;;3.58;53.80
42411;BME280;28056;51.112;0.984;2022-12-18T02:33:34;101389.00;;;3.72;53.66
42411;BME280;28056;51.112;0.984;2022-12-18T02:36:09;101398.95;;;3.55;53.29
42411;BME280;28056;51.112;0.984;2022-12-18T02:38:38;101398.49;;;4.07;53.19
42411;BME280;28056;51.112;0.984;2022-12-18T02:41:07;101401.93;;;4.23;52.99
42411;BME280;28056;51.112;0.984;2022-12-18T02:43:35;101408.66;;;4.05;52.51
42411;BME280;28056;51.112;0.984;2022-12-18T02:46:26;101409.78;;;4.08;52.70
42411;BME280;28056;51.112;0.984;2022-12-18T02:48:58;101411.03;;;4.54;52.42
42411;BME280;28056;51.112;0.984;2022-12-18T02:51:31;101409.27;;;4.96;52.30
42411;BME280;28056;51.112;0.984;2022-12-18T02:54:07;101411.15;;;4.76;51.67
42411;BME280;28056;51.112;0.984;2022-12-18T02:56:40;101415.37;;;4.68;51.47
42411;BME280;28056;51.112;0.984;2022-12-18T02:59:14;101417.94;;;4.96;51.50
42411;BME280;28056;51.112;0.984;2022-12-18T03:01:49;101421.72;;;5.04;51.19
42411;BME280;28056;51.112;0.984;2022-12-18T03:04:22;101422.99;;;4.10;52.36
42411;BME280;28056;51.112;0.984;2022-12-18T03:06:55;101417.83;;;3.88;52.78
42411;BME280;28056;51.112;0.984;2022-12-18T03:09:29;101416.92;;;3.89;53.92
42411;BME280;28056;51.112;0.984;2022-12-18T03:12:04;101421.47;;;2.94;54.74
42411;BME280;28056;51.112;0.984;2022-12-18T03:14:34;101419.96;;;3.65;53.11
42411;BME280;28056;51.112;0.984;2022-12-18T03:17:09;101419.97;;;3.70;52.19
42411;BME280;28056;51.112;0.984;2022-12-18T03:19:38;101413.88;;;4.05;52.24
